KICL/ICL METAR and TAF weather

Enter ICAO airport designator
Station Type Date Time Source
KICL METAR 2019/12/07 07:35 UTC NOAA

KICL 070735Z AUTO 17004KT 10SM CLR M06/M06 A3034 RMK AO2


Station Type Date Time Source
KICL Decoded METAR 2019/12/07 07:35 UTC NOAA

Clarinda, IA, United States (KICL) 40-43N 095-02W
Dec 07, 2019 - 02:35 AM EST / 2019.12.07 0735 UTC
Wind: from the S (170 degrees) at 5 MPH (4 KT):0
Visibility: 10 mile(s):0
Sky conditions: clear
Temperature: 21 F (-6 C)
Windchill: 14 F (-10 C):1
Dew Point: 21 F (-6 C)
Relative Humidity: 100%
Pressure (altimeter): 30.34 in. Hg (1027 hPa)
ob: KICL 070735Z AUTO 17004KT 10SM CLR M06/M06 A3034 RMK AO2
cycle: 7

Station Type Date Time Source
KICL TAF UTC NOAA

Error!

Example: see airport list